Time;durP1;ratioP1;P1;durP2;ratioP2;P2;SDS_P1;SDS_P2;PMS_P1;PMS_P2;Temp;Humidity;BMP_temperature;BMP_pressure;BME280_temperature;BME280_humidity;BME280_pressure;Samples;Min_cycle;Max_cycle;Signal;HPM_P1;HPM_P2
2023/07/28 00:01:35;;;;;;;2.90;2.80;;;20.50;99.90;;;20.91;100.00;100360.94;5061800;28;20443;-66
2023/07/28 00:04:07;;;;;;;3.05;2.95;;;20.60;99.90;;;20.91;100.00;100363.63;5045276;28;20147;-65
2023/07/28 00:06:35;;;;;;;2.80;2.70;;;20.60;99.90;;;20.91;100.00;100361.81;5047408;28;20124;-65
2023/07/28 00:09:04;;;;;;;2.58;2.47;;;20.60;99.90;;;20.81;100.00;100365.09;5043723;28;20069;-66
2023/07/28 00:11:33;;;;;;;3.08;2.88;;;20.50;99.90;;;20.81;100.00;100357.88;5035753;28;20038;-66
2023/07/28 00:14:01;;;;;;;2.70;2.60;;;20.40;99.90;;;20.78;100.00;100362.56;5042798;28;20048;-65
2023/07/28 00:16:29;;;;;;;2.92;2.83;;;20.40;99.90;;;20.87;100.00;100364.72;5040607;28;20049;-65
2023/07/28 00:18:57;;;;;;;3.10;3.00;;;20.50;99.90;;;20.84;100.00;100362.22;5046072;28;20087;-65
2023/07/28 00:21:27;;;;;;;2.80;2.70;;;20.50;99.90;;;20.79;100.00;100365.16;5045484;28;20045;-66
2023/07/28 00:23:55;;;;;;;2.90;2.80;;;20.40;99.90;;;20.84;100.00;100363.09;5045075;28;20067;-65
2023/07/28 00:26:24;;;;;;;2.75;2.65;;;20.50;99.90;;;20.83;100.00;100355.13;5046114;28;20499;-65
2023/07/28 00:28:53;;;;;;;2.90;2.80;;;20.40;99.90;;;20.82;100.00;100356.94;5060257;28;20053;-65
2023/07/28 00:31:22;;;;;;;2.97;2.87;;;20.50;99.90;;;20.92;100.00;100357.31;5047195;28;20486;-65
2023/07/28 00:33:50;;;;;;;6.50;5.88;;;20.50;99.90;;;20.82;100.00;100356.94;5043578;28;20311;-65
2023/07/28 00:36:18;;;;;;;3.30;3.20;;;20.50;99.90;;;20.88;100.00;100355.72;5043487;28;20080;-65
2023/07/28 00:38:47;;;;;;;4.25;2.53;;;20.50;99.90;;;20.89;100.00;100354.75;5046851;28;20047;-65
2023/07/28 00:41:17;;;;;;;2.50;2.40;;;20.50;99.90;;;20.99;100.00;100364.94;5060170;28;20055;-65
2023/07/28 00:43:45;;;;;;;2.58;2.47;;;20.60;99.90;;;20.83;100.00;100347.91;5045668;28;20114;-65
2023/07/28 00:46:15;;;;;;;2.65;2.55;;;20.60;99.90;;;20.86;100.00;100355.81;5060751;28;20505;-65
2023/07/28 00:48:45;;;;;;;2.60;2.50;;;20.50;99.90;;;20.98;100.00;100362.34;5044469;28;20072;-65
2023/07/28 00:51:14;;;;;;;2.83;2.72;;;20.60;99.90;;;20.93;100.00;100359.03;5046317;28;20110;-65
2023/07/28 00:53:42;;;;;;;2.65;2.55;;;20.60;99.90;;;20.95;100.00;100354.44;5043613;28;20056;-65
2023/07/28 00:56:12;;;;;;;4.20;3.08;;;20.60;99.90;;;20.99;100.00;100356.88;5034997;28;20490;-65
2023/07/28 00:58:40;;;;;;;3.05;2.95;;;20.60;99.90;;;20.97;100.00;100352.53;5058945;28;20116;-65
2023/07/28 01:01:08;;;;;;;2.30;2.20;;;20.60;99.90;;;20.94;100.00;100350.91;5045831;28;20067;-65
2023/07/28 01:03:38;;;;;;;2.75;2.65;;;20.60;99.90;;;20.96;100.00;100353.50;5055996;28;20042;-65
2023/07/28 01:06:21;;;;;;;2.90;2.80;;;20.60;99.90;;;20.94;100.00;100352.72;5060194;28;20053;-65
2023/07/28 01:08:57;;;;;;;2.97;2.88;;;20.60;99.90;;;21.00;100.00;100349.69;5046734;28;20060;-65
2023/07/28 01:11:25;;;;;;;8.50;7.65;;;20.70;99.90;;;20.92;100.00;100355.50;5043734;28;20057;-65
2023/07/28 01:13:54;;;;;;;3.50;3.30;;;20.60;99.90;;;20.99;100.00;100356.88;5060347;28;20600;-65
2023/07/28 01:16:22;;;;;;;2.45;2.35;;;20.60;99.90;;;21.01;100.00;100365.75;5045069;28;20045;-65
2023/07/28 01:18:52;;;;;;;8.77;5.30;;;20.60;99.90;;;21.06;100.00;100355.59;5043796;28;20073;-65
2023/07/28 01:21:23;;;;;;;2.93;2.83;;;20.70;99.90;;;21.09;100.00;100357.25;5061240;28;20056;-66
2023/07/28 01:24:08;;;;;;;2.50;2.40;;;20.70;99.90;;;21.09;100.00;100350.06;5046696;28;20295;-66
2023/07/28 01:26:39;;;;;;;2.85;2.75;;;20.70;99.90;;;21.04;100.00;100353.97;5034656;28;20075;-65
2023/07/28 01:29:09;;;;;;;3.67;3.47;;;20.70;99.90;;;21.04;100.00;100348.59;5034673;28;20044;-65
2023/07/28 01:31:38;;;;;;;2.75;2.65;;;20.70;99.90;;;20.99;100.00;100348.81;5049746;28;20498;-65
2023/07/28 01:34:06;;;;;;;2.85;2.75;;;20.70;99.90;;;21.02;100.00;100355.88;5058217;28;20144;-65
2023/07/28 01:36:35;;;;;;;2.63;2.53;;;20.70;99.90;;;21.04;100.00;100359.34;5045588;28;20383;-65
2023/07/28 01:39:04;;;;;;;2.95;2.85;;;20.70;99.90;;;21.00;100.00;100358.59;5043478;28;20096;-65
2023/07/28 01:41:32;;;;;;;2.65;2.55;;;20.70;99.90;;;21.01;100.00;100356.81;5044554;28;20386;-65
2023/07/28 01:44:02;;;;;;;2.90;2.80;;;20.60;99.90;;;21.01;100.00;100356.81;5044211;28;20033;-65
2023/07/28 01:46:30;;;;;;;3.17;3.07;;;20.70;99.90;;;20.96;100.00;100361.56;5059015;28;20560;-65
2023/07/28 01:48:59;;;;;;;2.58;2.47;;;20.60;99.90;;;21.07;100.00;100361.84;5060738;28;20317;-65
2023/07/28 01:51:27;;;;;;;17.80;3.75;;;20.70;99.90;;;21.02;100.00;100367.47;5042672;28;20051;-65
2023/07/28 01:53:55;;;;;;;2.50;2.40;;;20.70;99.90;;;21.06;100.00;100373.59;5045394;28;20130;-65
2023/07/28 01:56:24;;;;;;;2.65;2.55;;;20.70;99.90;;;21.10;100.00;100367.94;5049311;28;20092;-65
2023/07/28 01:58:52;;;;;;;2.80;2.70;;;20.70;99.90;;;21.07;100.00;100367.25;5049260;28;20046;-66
2023/07/28 02:01:22;;;;;;;2.97;2.78;;;20.70;99.90;;;21.07;100.00;100364.56;5057966;28;20049;-65
2023/07/28 02:03:50;;;;;;;3.13;3.03;;;20.70;99.90;;;21.08;100.00;100364.47;5059721;28;20445;-66
2023/07/28 02:06:19;;;;;;;2.60;2.50;;;20.70;99.90;;;21.11;100.00;100364.31;5043223;28;20092;-65
2023/07/28 02:08:47;;;;;;;3.03;2.92;;;20.70;99.90;;;21.17;100.00;100363.97;5043651;28;20037;-65
2023/07/28 02:11:15;;;;;;;2.60;2.50;;;20.80;99.90;;;21.16;100.00;100361.34;5044076;28;20081;-65
2023/07/28 02:13:44;;;;;;;2.60;2.50;;;20.80;99.90;;;21.17;100.00;100365.78;5058232;28;20270;-65
2023/07/28 02:16:17;;;;;;;2.40;2.30;;;20.80;99.90;;;21.17;100.00;100365.78;5057023;28;20407;-65
2023/07/28 02:18:47;;;;;;;2.35;2.25;;;20.80;99.90;;;21.23;100.00;100363.63;5041607;28;20417;-65
2023/07/28 02:21:15;;;;;;;2.63;2.53;;;20.90;99.90;;;21.25;100.00;100361.69;5044709;28;20053;-65
2023/07/28 02:23:44;;;;;;;2.10;2.00;;;20.90;99.90;;;21.23;100.00;100362.75;5057491;28;20154;-65
2023/07/28 02:26:12;;;;;;;2.65;2.55;;;20.90;99.90;;;21.21;100.00;100362.84;5043670;28;20075;-65
2023/07/28 02:28:40;;;;;;;2.58;2.47;;;20.90;99.90;;;21.20;100.00;100361.09;5055279;28;20136;-65
2023/07/28 02:31:08;;;;;;;6.57;5.22;;;20.90;99.90;;;21.28;100.00;100364.22;5075701;28;20482;-65
2023/07/28 02:33:37;;;;;;;3.08;2.97;;;20.90;99.90;;;21.29;100.00;100365.09;5042675;28;20037;-65
2023/07/28 02:36:07;;;;;;;2.50;2.40;;;20.90;99.90;;;21.25;100.00;100368.91;5056392;28;20111;-65
2023/07/28 02:38:35;;;;;;;2.67;2.58;;;20.90;99.90;;;21.27;100.00;100364.31;5076534;28;20041;-65
2023/07/28 02:41:04;;;;;;;2.70;2.60;;;20.90;99.90;;;21.20;100.00;100370.97;5041293;28;20052;-65
2023/07/28 02:43:32;;;;;;;3.42;3.15;;;20.90;99.90;;;21.26;100.00;100374.19;5041074;28;20395;-65
2023/07/28 02:46:01;;;;;;;2.50;2.40;;;20.90;99.90;;;21.33;100.00;100369.34;5044481;28;20052;-65
2023/07/28 02:48:30;;;;;;;3.92;3.60;;;21.00;99.90;;;20.65;100.00;100258.38;5042622;28;20056;-65
2023/07/28 02:50:58;;;;;;;3.67;3.38;;;21.00;99.90;;;21.26;100.00;100376.03;5043493;28;20053;-66
2023/07/28 02:53:28;;;;;;;2.75;2.65;;;20.90;99.90;;;21.26;100.00;100374.19;5054895;28;20050;-65
2023/07/28 02:55:58;;;;;;;2.80;2.70;;;20.90;99.90;;;21.33;100.00;100380.13;5075699;28;20064;-65
2023/07/28 02:58:26;;;;;;;2.85;2.75;;;21.00;99.90;;;21.26;100.00;100368.81;5057268;28;20107;-65
2023/07/28 03:00:55;;;;;;;2.60;2.50;;;21.00;99.90;;;21.38;100.00;100378.03;5043910;28;20045;-65
2023/07/28 03:03:31;;;;;;;2.38;2.28;;;21.00;99.90;;;21.37;100.00;100385.22;5057228;28;20045;-65
2023/07/28 03:06:00;;;;;;;3.05;2.95;;;21.00;99.90;;;21.42;100.00;100393.94;5058815;28;20049;-65
2023/07/28 03:08:29;;;;;;;2.80;2.70;;;21.10;99.90;;;21.41;100.00;100392.16;5057900;28;20128;-65
2023/07/28 03:11:14;;;;;;;2.45;2.35;;;21.10;99.90;;;21.45;100.00;100392.84;5056727;28;20068;-65
2023/07/28 03:13:43;;;;;;;2.70;2.60;;;21.10;99.90;;;21.39;100.00;100395.91;5050672;28;20045;-65
2023/07/28 03:16:11;;;;;;;2.78;2.67;;;21.10;99.90;;;21.36;100.00;100396.06;5054155;28;20053;-65
2023/07/28 03:18:40;;;;;;;2.88;2.78;;;21.10;99.90;;;21.33;100.00;100385.50;5042354;28;20046;-65
2023/07/28 03:21:10;;;;;;;3.10;3.00;;;21.10;99.90;;;20.95;100.00;100312.28;5042662;28;20041;-65
2023/07/28 03:23:39;;;;;;;3.25;3.00;;;21.10;99.90;;;21.40;100.00;100398.53;5043388;28;20049;-65
2023/07/28 03:26:08;;;;;;;2.47;2.37;;;21.10;99.90;;;21.43;100.00;100397.47;5041265;28;20479;-65
2023/07/28 03:28:36;;;;;;;2.83;2.72;;;21.10;99.90;;;21.43;100.00;100392.06;5044124;28;20045;-65
2023/07/28 03:31:04;;;;;;;2.75;2.65;;;21.10;99.90;;;21.41;100.00;100394.88;5040784;28;20077;-66
2023/07/28 03:33:33;;;;;;;3.17;3.08;;;21.10;99.90;;;21.43;100.00;100392.06;5048899;28;20052;-65
2023/07/28 03:36:02;;;;;;;3.00;2.90;;;21.10;99.90;;;21.43;100.00;100392.06;5036696;28;20037;-65
2023/07/28 03:38:33;;;;;;;3.10;3.00;;;21.10;99.90;;;21.38;100.00;100396.88;5051683;28;20041;-65
2023/07/28 03:41:03;;;;;;;3.47;3.33;;;21.10;99.90;;;21.34;100.00;100398.88;5043242;28;20410;-65
2023/07/28 03:43:31;;;;;;;2.77;2.67;;;21.00;99.90;;;21.30;100.00;100399.09;5059930;28;20520;-65
2023/07/28 03:45:59;;;;;;;2.47;2.38;;;21.00;99.90;;;21.35;100.00;100402.44;5062657;28;20369;-65
2023/07/28 03:48:28;;;;;;;2.70;2.60;;;21.00;99.90;;;21.38;100.00;100400.44;5060693;28;20046;-66
2023/07/28 03:50:56;;;;;;;3.22;3.13;;;21.00;99.90;;;21.34;100.00;100409.63;5059886;28;20080;-67
2023/07/28 03:53:24;;;;;;;16.15;7.32;;;21.00;99.90;;;21.32;100.00;100408.84;5048229;28;20075;-66
2023/07/28 03:55:53;;;;;;;2.58;2.47;;;21.00;99.90;;;21.32;100.00;100418.72;5048111;28;20122;-65
2023/07/28 03:58:23;;;;;;;2.55;2.45;;;21.00;99.90;;;21.39;100.00;100409.34;5056803;28;20129;-65
2023/07/28 04:00:52;;;;;;;2.58;2.47;;;21.00;99.90;;;21.38;100.00;100424.66;5045417;28;20084;-65
2023/07/28 04:03:21;;;;;;;5.00;2.78;;;21.00;99.90;;;21.40;100.00;100417.34;5046535;28;20048;-65
2023/07/28 04:05:50;;;;;;;3.10;3.00;;;21.10;99.90;;;21.39;100.00;100426.38;5058296;28;20499;-65
2023/07/28 04:08:18;;;;;;;2.70;2.60;;;21.10;99.90;;;21.42;100.00;100422.66;5078676;28;20057;-65
2023/07/28 04:10:46;;;;;;;2.80;2.70;;;21.10;99.90;;;21.41;100.00;100412.81;5060585;28;20096;-65
2023/07/28 04:13:15;;;;;;;2.97;2.88;;;21.10;99.90;;;21.42;100.00;100406.50;5062569;28;20059;-65
2023/07/28 04:15:45;;;;;;;2.72;2.63;;;21.10;99.90;;;21.43;100.00;100411.78;5051306;28;20409;-65
2023/07/28 04:18:13;;;;;;;3.53;3.33;;;21.10;99.90;;;21.41;100.00;100415.50;5059350;28;20057;-65
2023/07/28 04:20:41;;;;;;;2.97;2.88;;;21.10;99.90;;;21.41;100.00;100418.19;5062620;28;20704;-65
2023/07/28 04:23:10;;;;;;;2.60;2.50;;;21.10;99.90;;;21.46;100.00;100421.53;5044575;28;20045;-65
2023/07/28 04:25:40;;;;;;;3.28;3.17;;;21.10;99.90;;;21.45;100.00;100420.66;5061561;28;20413;-65
2023/07/28 04:28:08;;;;;;;4.32;4.00;;;21.10;99.90;;;21.50;100.00;100423.09;5057525;28;20379;-65
2023/07/28 04:30:37;;;;;;;2.72;2.63;;;21.20;99.90;;;21.51;100.00;100424.81;5077718;28;20041;-65
2023/07/28 04:33:07;;;;;;;2.80;2.70;;;21.20;99.90;;;21.54;100.00;100416.59;5060291;28;20136;-65
2023/07/28 04:35:39;;;;;;;3.22;3.03;;;21.20;99.90;;;21.54;100.00;100419.28;5059038;28;20049;-65
2023/07/28 04:38:17;;;;;;;2.95;2.80;;;21.20;99.90;;;21.41;100.00;100415.50;5034399;28;20053;-65
2023/07/28 04:40:57;;;;;;;3.08;2.97;;;21.10;99.90;;;21.46;100.00;100418.84;5035620;28;20069;-65
2023/07/28 04:43:42;;;;;;;2.65;2.55;;;21.10;99.90;;;21.47;100.00;100425.94;5042136;28;20041;-65
2023/07/28 04:46:11;;;;;;;2.70;2.60;;;21.10;99.90;;;21.50;100.00;100429.31;5056381;28;20053;-65
2023/07/28 04:48:41;;;;;;;2.58;2.47;;;21.20;99.90;;;21.49;100.00;100424.03;5059897;28;20053;-65
2023/07/28 04:51:30;;;;;;;3.03;2.92;;;21.20;99.90;;;21.47;100.00;100417.88;5045301;28;20454;-65
2023/07/28 04:54:21;;;;;;;2.60;2.50;;;21.20;99.90;;;21.46;100.00;100426.91;5047148;28;20524;-65
2023/07/28 04:56:52;;;;;;;2.42;2.33;;;21.10;99.90;;;21.44;100.00;100432.38;5060291;28;20040;-65
2023/07/28 04:59:27;;;;;;;2.40;2.30;;;21.10;99.90;;;21.51;100.00;100432.88;5058290;28;20060;-65
2023/07/28 05:01:55;;;;;;;2.67;2.58;;;21.20;99.90;;;21.57;100.00;100432.53;5035049;28;20046;-65
2023/07/28 05:04:25;;;;;;;2.67;2.58;;;21.20;99.90;;;21.56;100.00;100433.53;5041371;28;20064;-65
2023/07/28 05:06:53;;;;;;;3.20;3.08;;;21.20;99.90;;;20.91;100.00;100324.16;5050466;28;20483;-65
2023/07/28 05:09:21;;;;;;;3.60;3.38;;;21.30;99.90;;;21.55;100.00;100431.75;5045657;28;20092;-65
2023/07/28 05:11:50;;;;;;;2.20;2.10;;;21.20;99.90;;;21.43;100.00;100416.28;5060407;28;20095;-65
2023/07/28 05:14:18;;;;;;;2.95;2.85;;;21.20;99.90;;;21.50;100.00;100428.47;5044674;28;20056;-66
2023/07/28 05:16:47;;;;;;;2.80;2.70;;;21.20;99.90;;;21.52;100.00;100432.78;5059718;28;20053;-65
2023/07/28 05:19:55;;;;;;;2.85;2.75;;;21.20;99.90;;;21.54;100.00;100438.13;5041814;28;20045;-65
2023/07/28 05:22:36;;;;;;;2.80;2.70;;;21.20;99.90;;;21.50;100.00;100439.25;5057021;28;20130;-65
2023/07/28 05:25:07;;;;;;;2.47;2.38;;;21.20;99.90;;;21.48;100.00;100433.94;5078033;28;20387;-65
2023/07/28 05:27:39;;;;;;;2.80;2.70;;;21.20;99.90;;;21.41;100.00;100446.00;5054129;28;20452;-65
2023/07/28 05:30:09;;;;;;;2.55;2.45;;;21.10;99.90;;;21.44;100.00;100444.97;5041638;28;20128;-65
2023/07/28 05:32:37;;;;;;;2.80;2.70;;;21.10;99.90;;;21.51;100.00;100451.72;5052135;28;20055;-65
2023/07/28 05:35:18;;;;;;;3.53;3.22;;;21.20;99.90;;;21.42;100.00;100449.56;5057079;28;20058;-65
2023/07/28 05:37:46;;;;;;;2.90;2.80;;;21.10;99.90;;;21.41;100.00;100445.13;5077951;28;20057;-65
2023/07/28 05:40:15;;;;;;;3.38;3.17;;;21.10;99.90;;;21.37;100.00;100443.56;5057763;28;20499;-65
2023/07/28 05:42:43;;;;;;;3.25;3.10;;;21.10;99.90;;;21.37;100.00;100455.19;5032664;28;20068;-65
2023/07/28 05:45:12;;;;;;;2.75;2.65;;;21.00;99.90;;;21.28;100.00;100463.78;5034208;28;20453;-65
2023/07/28 05:47:41;;;;;;;2.70;2.60;;;21.00;99.90;;;21.36;100.00;100456.16;5034053;28;20399;-65
2023/07/28 05:50:10;;;;;;;2.90;2.80;;;21.00;99.90;;;21.28;100.00;100450.31;5051039;28;20384;-66
2023/07/28 05:52:40;;;;;;;2.87;2.77;;;21.00;99.90;;;21.38;100.00;100462.31;5059349;28;20045;-66
2023/07/28 05:55:10;;;;;;;3.10;3.00;;;21.00;99.90;;;21.39;100.00;100468.56;5044575;28;20411;-65
2023/07/28 05:57:39;;;;;;;2.80;2.70;;;21.00;99.90;;;21.41;100.00;100463.97;5058125;28;20037;-65
2023/07/28 06:00:11;;;;;;;2.67;2.58;;;21.10;99.90;;;21.41;100.00;100469.34;5057483;28;20052;-65
2023/07/28 06:02:43;;;;;;;4.00;3.80;;;21.10;99.90;;;21.51;100.00;100471.44;5042696;28;20049;-65
2023/07/28 06:05:26;;;;;;;2.90;2.80;;;21.10;99.90;;;21.54;100.00;100475.81;5057574;28;20442;-65
2023/07/28 06:07:56;;;;;;;3.15;3.05;;;21.20;99.90;;;21.55;100.00;100473.03;5045253;28;20041;-65
2023/07/28 06:10:24;;;;;;;2.75;2.65;;;21.20;99.90;;;21.52;100.00;100475.88;5034095;28;20047;-65
2023/07/28 06:12:53;;;;;;;3.00;2.90;;;21.20;99.90;;;21.51;100.00;100474.16;5040381;28;20052;-65
2023/07/28 06:15:21;;;;;;;2.95;2.85;;;21.20;99.90;;;21.54;100.00;100481.19;5049013;28;20054;-65
2023/07/28 06:17:49;;;;;;;2.90;2.80;;;21.20;99.90;;;21.55;100.00;100480.22;5049012;28;20526;-65
2023/07/28 06:20:19;;;;;;;2.50;2.40;;;21.20;99.90;;;21.55;100.00;100496.38;5041994;28;20057;-65
2023/07/28 06:22:47;;;;;;;2.58;2.47;;;21.20;99.90;;;21.49;100.00;100481.44;5043174;28;20045;-65
2023/07/28 06:25:17;;;;;;;2.70;2.60;;;21.20;99.90;;;21.44;100.00;100490.72;5055903;28;20050;-65
2023/07/28 06:27:46;;;;;;;2.67;2.58;;;21.10;99.90;;;21.53;100.00;100498.28;5043171;28;20159;-65
2023/07/28 06:30:14;;;;;;;2.70;2.60;;;21.20;99.90;;;21.54;100.00;100500.88;5057224;28;20049;-65
2023/07/28 06:32:43;;;;;;;2.83;2.72;;;21.20;99.90;;;21.53;100.00;100504.53;5041413;28;20119;-65
2023/07/28 06:35:11;;;;;;;3.53;3.33;;;21.20;99.90;;;21.51;100.00;100516.34;5033450;28;20135;-65
2023/07/28 06:37:40;;;;;;;3.50;3.30;;;21.20;99.90;;;21.44;100.00;100507.75;5033352;28;20128;-65
2023/07/28 06:40:10;;;;;;;2.67;2.58;;;21.10;99.90;;;21.46;100.00;100510.34;5048612;28;20498;-66
2023/07/28 06:42:39;;;;;;;3.75;3.55;;;21.10;99.90;;;21.54;100.00;100510.81;5038900;28;20049;-65
2023/07/28 06:45:09;;;;;;;2.40;2.30;;;21.20;99.90;;;21.59;100.00;100514.09;5058272;28;20129;-64
2023/07/28 06:47:38;;;;;;;2.30;2.20;;;21.30;99.90;;;21.54;100.00;100518.88;5043566;28;20513;-65
2023/07/28 06:50:07;;;;;;;2.30;2.20;;;21.20;99.90;;;21.58;100.00;100521.28;5057200;28;20053;-65
2023/07/28 06:52:36;;;;;;;46.83;4.35;;;21.20;99.90;;;21.58;100.00;100518.59;5044748;28;20090;-65
2023/07/28 06:55:06;;;;;;;2.70;2.60;;;21.30;99.90;;;21.58;100.00;100514.19;5041290;28;20049;-65
2023/07/28 06:57:36;;;;;;;2.88;2.78;;;21.30;99.90;;;21.54;100.00;100518.88;5043787;28;20406;-65
2023/07/28 07:00:11;;;;;;;2.53;2.42;;;21.20;99.90;;;21.53;100.00;100519.81;5042776;28;20048;-65
2023/07/28 07:02:39;;;;;;;2.72;2.63;;;21.20;99.90;;;21.56;100.00;100515.13;5057651;28;20040;-66
2023/07/28 07:05:09;;;;;;;2.83;2.72;;;21.30;99.90;;;21.64;100.00;100522.78;5058926;28;20452;-66
2023/07/28 07:07:38;;;;;;;2.47;2.38;;;21.30;99.90;;;21.56;100.00;100527.75;5041323;28;20041;-65
2023/07/28 07:10:09;;;;;;;2.75;2.65;;;21.20;99.90;;;21.66;100.00;100530.78;5047955;28;20502;-65
2023/07/28 07:12:37;;;;;;;;;;;21.30;99.90;;;21.73;100.00;100521.41;5041595;28;20046;-66
2023/07/28 07:15:09;;;;;;;3.05;2.95;;;21.40;99.90;;;21.76;100.00;100538.25;5043519;28;20321;-65
2023/07/28 07:17:37;;;;;;;2.20;2.10;;;21.50;99.90;;;21.72;100.00;100547.47;5042680;28;20045;-66
2023/07/28 07:20:10;;;;;;;2.42;2.33;;;21.40;99.90;;;21.77;99.68;100544.53;5042260;28;20036;-65
2023/07/28 07:22:38;;;;;;;2.20;2.10;;;21.40;99.90;;;21.78;99.76;100532.78;5043641;28;20045;-65
2023/07/28 07:25:08;;;;;;;2.58;2.47;;;21.40;99.90;;;21.71;99.85;100544.84;5040628;28;20388;-65
2023/07/28 07:27:37;;;;;;;2.85;2.75;;;21.40;99.90;;;21.78;100.00;100552.50;5041401;28;20053;-65
2023/07/28 07:30:09;;;;;;;2.10;2.00;;;21.40;99.90;;;21.81;99.94;100555.06;5043764;28;20045;-65
2023/07/28 07:32:37;;;;;;;2.35;2.25;;;21.50;99.90;;;21.87;100.00;100546.66;5042395;28;20057;-65
2023/07/28 07:35:08;;;;;;;2.20;2.10;;;21.60;99.90;;;21.83;99.82;100549.59;5042529;28;20045;-65
2023/07/28 07:37:36;;;;;;;;;;;21.50;99.90;;;21.84;99.56;100551.31;5043179;28;20053;-65
2023/07/28 07:40:07;;;;;;;2.42;2.33;;;21.50;99.90;;;21.86;99.37;100544.03;5041462;28;19971;-65
2023/07/28 07:42:44;;;;;;;2.45;2.35;;;21.60;99.90;;;21.95;99.56;100551.63;5043878;28;20045;-66
2023/07/28 07:45:14;;;;;;;2.90;2.80;;;21.60;99.90;;;21.90;99.73;100554.56;5041182;28;20050;-66
2023/07/28 07:47:43;;;;;;;2.88;2.78;;;21.60;99.90;;;21.90;99.74;100551.88;5058168;28;20410;-65
2023/07/28 07:50:13;;;;;;;2.33;2.22;;;21.60;99.90;;;21.96;99.91;100556.91;5042455;28;20048;-66
2023/07/28 07:52:41;;;;;;;2.45;2.35;;;21.60;99.90;;;21.89;99.43;100560.03;5041604;28;20120;-65
2023/07/28 07:55:12;;;;;;;2.83;2.72;;;21.60;99.90;;;21.89;99.86;100560.88;5043637;28;20099;-66
2023/07/28 07:57:41;;;;;;;2.60;2.50;;;21.60;99.90;;;21.98;99.50;100568.47;5040541;28;20137;-66
2023/07/28 08:00:15;;;;;;;2.72;2.63;;;21.70;99.90;;;21.98;99.06;100571.16;5032411;28;20132;-66
2023/07/28 08:02:45;;;;;;;3.15;2.95;;;21.70;99.90;;;21.92;99.35;100582.28;5032170;28;20604;-66
2023/07/28 08:05:14;;;;;;;2.95;2.85;;;21.60;99.90;;;21.93;99.26;100588.53;5031844;28;20414;-66
2023/07/28 08:07:44;;;;;;;2.90;2.80;;;21.60;99.90;;;22.04;99.39;100586.13;5034782;28;20045;-66
2023/07/28 08:10:12;;;;;;;2.75;2.65;;;21.70;99.90;;;21.91;99.40;100580.53;5040977;28;20376;-66
2023/07/28 08:12:41;;;;;;;3.10;2.95;;;21.60;99.90;;;21.94;99.72;100583.06;5058879;28;20059;-67
2023/07/28 08:15:11;;;;;;;2.83;2.72;;;21.60;99.90;;;22.03;99.84;100584.34;5040357;28;20075;-66
2023/07/28 08:17:41;;;;;;;2.70;2.60;;;21.60;99.90;;;21.97;99.49;100584.72;5040499;28;20461;-67
2023/07/28 08:20:10;;;;;;;2.47;2.37;;;21.70;99.90;;;22.01;99.49;100583.59;5042994;28;20045;-66
2023/07/28 08:22:38;;;;;;;3.03;2.80;;;21.70;99.90;;;21.94;99.01;100574.97;5044923;28;20497;-65
2023/07/28 08:25:08;;;;;;;2.63;2.53;;;21.70;99.90;;;21.91;98.97;100564.34;5045613;28;20113;-65
2023/07/28 08:27:36;;;;;;;3.35;3.15;;;21.70;99.90;;;22.13;98.51;100583.75;5045686;28;20060;-67
2023/07/28 08:30:06;;;;;;;11.88;5.63;;;21.80;99.90;;;22.16;98.53;100580.88;5044729;28;20045;-67
2023/07/28 08:32:34;;;;;;;2.67;2.57;;;21.90;99.90;;;22.18;98.67;100589.75;5062211;28;20410;-66
2023/07/28 08:35:05;;;;;;;2.58;2.47;;;21.90;99.90;;;22.10;98.36;100578.56;5043647;28;20103;-66
2023/07/28 08:37:33;;;;;;;2.45;2.35;;;21.80;99.90;;;22.18;98.77;100588.91;5035801;28;20092;-67
2023/07/28 08:40:04;;;;;;;2.38;2.28;;;21.90;99.90;;;22.31;98.70;100587.25;5035151;28;20069;-66
2023/07/28 08:42:38;;;;;;;2.28;2.17;;;22.00;99.90;;;22.35;98.44;100597.78;5035250;28;20049;-68
2023/07/28 08:45:09;;;;;;;2.35;2.25;;;22.00;99.90;;;22.27;97.56;100599.16;5035403;28;20049;-66
2023/07/28 08:47:38;;;;;;;2.40;2.30;;;22.00;99.90;;;22.40;97.24;100595.69;5043675;28;20133;-67
2023/07/28 08:50:09;;;;;;;2.50;2.40;;;22.10;99.90;;;22.42;96.77;100595.56;5047331;28;20114;-67
2023/07/28 08:52:38;;;;;;;2.75;2.65;;;22.10;99.90;;;22.44;96.45;100597.25;5042511;28;20541;-65
2023/07/28 08:55:07;;;;;;;2.20;2.10;;;22.10;99.90;;;22.44;95.90;100591.84;5045995;28;20041;-65
2023/07/28 08:57:36;;;;;;;3.22;3.03;;;22.20;99.90;;;22.45;95.90;100598.97;5059878;28;20454;-65
2023/07/28 09:00:13;;;;;;;2.45;2.35;;;22.20;99.90;;;22.51;95.81;100589.69;5045698;28;20409;-65
2023/07/28 09:02:42;;;;;;;4.95;3.50;;;22.20;99.90;;;22.48;96.32;100600.63;5046208;28;20099;-66
2023/07/28 09:05:20;;;;;;;2.53;2.42;;;22.20;99.90;;;22.54;96.48;100596.69;5042925;28;20060;-65
2023/07/28 09:07:49;;;;;;;2.75;2.65;;;22.20;99.90;;;22.53;96.12;100603.06;5050377;28;20486;-65
2023/07/28 09:10:17;;;;;;;2.80;2.70;;;22.20;99.90;;;22.52;96.46;100598.63;5041708;28;20046;-67
2023/07/28 09:12:48;;;;;;;2.80;2.70;;;22.20;99.90;;;22.50;96.14;100603.22;5034873;28;20387;-66
2023/07/28 09:15:17;;;;;;;2.58;2.47;;;22.20;99.90;;;22.48;95.91;100597.06;5034669;28;20403;-66
2023/07/28 09:17:46;;;;;;;2.90;2.80;;;22.10;99.90;;;22.39;95.68;100595.78;5043021;28;20115;-66
2023/07/28 09:20:17;;;;;;;3.03;2.83;;;22.10;99.90;;;22.38;95.82;100602.09;5046936;28;20518;-66
2023/07/28 09:22:46;;;;;;;2.63;2.53;;;22.10;99.90;;;22.48;95.99;100597.06;5059052;28;20053;-65
2023/07/28 09:25:17;;;;;;;2.25;2.15;;;22.10;99.90;;;22.05;95.81;100521.34;5045175;28;20041;-64
2023/07/28 09:27:50;;;;;;;;;;;22.20;99.90;;;22.57;95.53;100608.19;5044756;28;20087;-65
2023/07/28 09:30:19;;;;;;;2.53;2.42;;;22.20;99.90;;;22.56;95.22;100605.56;5043701;28;19925;-64
2023/07/28 09:32:49;;;;;;;2.40;2.30;;;22.20;99.90;;;22.54;95.04;100611.06;5045348;28;20095;-65
2023/07/28 09:35:21;;;;;;;2.53;2.42;;;22.20;99.90;;;22.69;95.33;100628.19;5042416;28;20049;-65
2023/07/28 09:37:52;;;;;;;2.67;2.58;;;22.30;99.90;;;22.63;93.87;100613.25;5034193;28;20045;-64
2023/07/28 09:40:23;;;;;;;2.10;2.00;;;22.30;99.90;;;22.53;93.69;100619.25;5034173;28;20513;-64
2023/07/28 09:42:54;;;;;;;;;;;22.20;99.90;;;22.66;94.46;100633.78;5034755;28;20469;-64
2023/07/28 09:45:25;;;;;;;2.70;2.60;;;22.30;99.90;;;22.66;94.25;100620.31;5037457;28;19920;-65
2023/07/28 09:48:08;;;;;;;2.55;2.45;;;22.30;99.90;;;22.71;93.42;100624.47;5075659;28;20049;-64
2023/07/28 09:50:39;;;;;;;;;;;22.40;99.90;;;22.71;93.00;100620.88;5044406;28;20123;-64
2023/07/28 09:53:10;;;;;;;2.90;2.80;;;22.40;99.90;;;22.65;92.67;100619.41;5044560;28;19921;-64
2023/07/28 09:55:42;;;;;;;2.50;2.40;;;22.40;99.90;;;22.77;92.98;100616.00;5042270;28;20049;-64
2023/07/28 09:58:14;;;;;;;2.83;2.72;;;22.50;99.90;;;22.49;92.29;100563.75;5033845;28;20049;-64
2023/07/28 10:00:44;;;;;;;2.80;2.70;;;22.60;99.90;;;22.78;91.85;100628.56;5033681;28;20038;-64
2023/07/28 10:03:12;;;;;;;2.20;2.10;;;22.50;99.90;;;22.82;91.73;100635.47;5033644;28;20046;-64
2023/07/28 10:05:43;;;;;;;2.42;2.33;;;22.50;99.90;;;22.70;90.96;100606.56;5035715;28;20386;-64
2023/07/28 10:08:12;;;;;;;2.55;2.45;;;22.50;99.90;;;22.75;90.90;100628.72;5049678;28;20053;-64
2023/07/28 10:10:42;;;;;;;3.08;2.38;;;22.50;99.90;;;22.88;91.17;100629.72;5044759;28;20041;-64
2023/07/28 10:13:21;;;;;;;2.50;2.40;;;22.50;99.90;;;22.87;91.08;100632.53;5041780;28;20049;-65
2023/07/28 10:15:51;;;;;;;2.38;2.28;;;22.50;99.90;;;23.03;91.16;100638.78;5043124;28;20179;-63
2023/07/28 10:18:22;;;;;;;2.30;2.20;;;22.70;99.90;;;23.09;91.00;100643.81;5043175;28;20040;-66
2023/07/28 10:20:52;;;;;;;2.30;2.20;;;22.80;99.90;;;23.18;90.35;100643.25;5059969;28;20060;-65